Time;durP1;ratioP1;P1;durP2;ratioP2;P2;SDS_P1;SDS_P2;PMS_P1;PMS_P2;Temp;Humidity;BMP_temperature;BMP_pressure;BME280_temperature;BME280_humidity;BME280_pressure;Samples;Min_cycle;Max_cycle;Signal;HPM_P1;HPM_P2
2022/11/25 00:01:19;;;;;;;88.97;40.73;;;;;;;1.86;91.60;100629.52;1747504;80;26398;-80
2022/11/25 00:03:47;;;;;;;89.42;38.83;;;;;;;1.86;91.67;100622.91;1745094;80;26738;-80
2022/11/25 00:06:20;;;;;;;93.97;39.67;;;;;;;1.88;91.70;100628.39;1753994;79;26631;-81
2022/11/25 00:08:52;;;;;;;89.97;38.98;;;;;;;1.90;91.61;100628.28;1755684;79;27462;-80
2022/11/25 00:11:18;;;;;;;93.05;41.55;;;;;;;1.91;91.70;100632.58;1803306;78;25788;-78
2022/11/25 00:13:46;;;;;;;90.15;39.18;;;;;;;1.91;91.69;100632.11;1755435;79;25445;-80
2022/11/25 00:16:16;;;;;;;99.67;44.80;;;;;;;1.93;91.68;100635.92;1765473;79;25800;-80
2022/11/25 00:18:49;;;;;;;102.87;45.98;;;;;;;1.93;91.60;100634.13;1756103;79;25303;-80
2022/11/25 00:21:19;;;;;;;106.63;46.25;;;;;;;1.92;91.61;100633.80;1760317;79;27498;-79
2022/11/25 00:23:56;;;;;;;101.05;45.43;;;;;;;1.92;91.67;100632.95;1757011;79;33252;-80
2022/11/25 00:26:24;;;;;;;121.10;48.90;;;;;;;1.89;91.51;100635.36;1750882;81;25563;-80
2022/11/25 00:28:52;;;;;;;122.00;47.67;;;;;;;1.88;91.50;100632.86;1742801;81;26138;-80
2022/11/25 00:31:22;;;;;;;120.05;49.05;;;;;;;1.85;91.72;100637.06;1742844;81;25757;-79
2022/11/25 00:33:49;;;;;;;131.07;49.93;;;;;;;1.84;91.79;100638.87;1749862;80;27530;-80
2022/11/25 00:36:22;;;;;;;125.33;50.12;;;;;;;1.82;91.94;100643.44;1744137;81;25296;-80
2022/11/25 00:39:01;;;;;;;126.58;49.60;;;;;;;1.83;92.01;100646.45;1766850;79;25789;-80
2022/11/25 00:44:35;;;;;;;122.72;47.50;;;;;;;1.86;92.12;100651.97;1760205;79;25613;-79
2022/11/25 00:47:17;;;;;;;118.75;49.50;;;;;;;1.85;92.09;100651.12;1738096;81;27467;-81
2022/11/25 00:49:47;;;;;;;126.25;52.83;;;;;;;1.83;92.10;100658.34;1768447;79;25852;-81
2022/11/25 00:52:17;;;;;;;124.87;50.83;;;;;;;1.81;92.13;100660.75;1767749;79;25506;-81
2022/11/25 00:54:46;;;;;;;120.82;50.33;;;;;;;1.82;92.44;100662.44;1771016;79;26907;-81
2022/11/25 00:57:15;;;;;;;138.15;52.50;;;;;;;1.81;92.42;100662.91;1733135;80;25333;-81
2022/11/25 00:59:43;;;;;;;126.53;50.52;;;;;;;1.80;92.42;100664.34;1750371;81;32611;-82
2022/11/25 01:02:11;;;;;;;125.38;52.35;;;;;;;1.79;92.55;100663.53;1750040;81;26022;-80
2022/11/25 01:04:38;;;;;;;127.58;51.55;;;;;;;1.79;92.69;100667.48;1749649;81;25780;-81
2022/11/25 01:07:05;;;;;;;126.85;48.05;;;;;;;1.80;92.70;100666.50;1741058;81;26530;-81
2022/11/25 01:09:33;;;;;;;123.82;46.85;;;;;;;1.80;92.67;100664.34;1765943;79;25626;-83
2022/11/25 01:12:00;;;;;;;118.35;50.38;;;;;;;1.77;92.61;100666.78;1740959;81;27469;-81
2022/11/25 01:14:26;;;;;;;123.58;48.25;;;;;;;1.79;92.81;100662.68;1768968;79;25794;-81
2022/11/25 01:16:53;;;;;;;127.53;51.90;;;;;;;1.79;92.85;100667.96;1746009;80;26038;-80
2022/11/25 01:19:19;;;;;;;126.00;46.15;;;;;;;1.80;93.01;100675.75;1765653;79;25762;-81
2022/11/25 01:21:46;;;;;;;126.95;47.43;;;;;;;1.83;92.92;100672.86;1768303;79;25769;-81
2022/11/25 01:24:15;;;;;;;120.53;45.88;;;;;;;1.83;92.99;100671.55;1760953;79;27448;-81
2022/11/25 01:26:42;;;;;;;111.22;46.53;;;;;;;1.85;93.02;100672.72;1769735;79;25924;-82
2022/11/25 01:29:15;;;;;;;116.20;41.88;;;;;;;1.87;93.01;100674.75;1753914;79;25889;-80
2022/11/25 01:31:43;;;;;;;100.47;40.73;;;;;;;1.87;92.85;100672.11;1756878;79;25997;-81
2022/11/25 01:34:19;;;;;;;111.25;44.73;;;;;;;1.82;92.70;100675.64;1791896;79;25790;-86
2022/11/25 01:36:46;;;;;;;121.57;45.60;;;;;;;1.81;92.80;100667.34;1742353;81;27458;-81
2022/11/25 01:39:21;;;;;;;114.77;42.80;;;;;;;1.82;92.90;100671.68;1728918;80;26015;-81
2022/11/25 01:41:49;;;;;;;105.27;41.08;;;;;;;1.83;92.93;100675.98;1761444;79;25846;-83
2022/11/25 01:44:21;;;;;;;112.00;43.85;;;;;;;1.85;92.84;100677.53;1791068;79;25833;-81
2022/11/25 01:47:15;;;;;;;108.00;42.35;;;;;;;1.85;92.79;100678.85;1783902;78;25818;-80
2022/11/25 01:49:53;;;;;;;112.62;44.55;;;;;;;1.87;92.83;100682.20;1772988;79;27459;-82
2022/11/25 01:52:37;;;;;;;118.93;42.88;;;;;;;1.88;92.89;100685.17;1758628;79;25845;-81
2022/11/25 01:55:11;;;;;;;103.72;40.52;;;;;;;1.89;92.97;100682.06;1763500;79;25327;-80
2022/11/25 01:57:46;;;;;;;110.22;41.23;;;;;;;1.91;93.08;100682.77;1780202;79;26555;-80
2022/11/25 02:00:13;;;;;;;111.55;41.60;;;;;;;1.91;92.96;100684.08;1754168;80;26373;-82
2022/11/25 02:02:52;;;;;;;98.30;37.10;;;;;;;1.91;92.91;100688.89;1740569;81;27459;-80
2022/11/25 02:05:26;;;;;;;107.87;38.10;;;;;;;1.90;92.77;100685.06;1781098;79;25784;-80
2022/11/25 02:07:53;;;;;;;92.90;34.92;;;;;;;1.89;92.75;100682.91;1754275;80;25905;-79
2022/11/25 02:10:24;;;;;;;96.42;35.45;;;;;;;1.86;92.61;100690.26;1741513;81;25830;-80
2022/11/25 02:12:51;;;;;;;98.80;36.30;;;;;;;1.84;92.57;100692.19;1767956;79;26139;-81
2022/11/25 02:15:19;;;;;;;89.75;34.58;;;;;;;1.84;92.70;100693.52;1760495;80;27427;-81
2022/11/25 02:17:46;;;;;;;98.27;35.90;;;;;;;1.86;92.88;100694.22;1744567;80;25811;-79
2022/11/25 02:20:19;;;;;;;95.30;36.65;;;;;;;1.88;92.86;100691.78;1770981;79;25843;-81
2022/11/25 02:23:18;;;;;;;94.22;36.13;;;;;;;1.90;92.91;100692.99;1762743;79;26572;-80
2022/11/25 02:25:46;;;;;;;97.08;36.75;;;;;;;1.89;92.80;100692.14;1803781;78;25771;-81
2022/11/25 02:28:25;;;;;;;92.85;35.55;;;;;;;1.89;92.84;100692.14;1800293;77;27464;-84
2022/11/25 02:30:53;;;;;;;91.53;34.55;;;;;;;1.91;92.89;100697.29;1782773;78;26056;-82
2022/11/25 02:33:20;;;;;;;92.47;36.40;;;;;;;1.93;92.92;100691.39;1809476;78;25974;-79
2022/11/25 02:35:51;;;;;;;96.92;37.85;;;;;;;1.93;92.96;100689.59;1782234;78;25799;-83
2022/11/25 02:38:41;;;;;;;97.20;36.53;;;;;;;1.94;92.81;100693.93;1799918;78;25891;-80
2022/11/25 02:41:20;;;;;;;97.25;35.43;;;;;;;1.94;92.89;100690.44;1795085;78;27955;-80
2022/11/25 02:43:48;;;;;;;94.37;34.83;;;;;;;1.95;92.87;100695.59;1803295;78;25797;-80
2022/11/25 02:46:19;;;;;;;97.35;34.85;;;;;;;1.96;92.95;100690.67;1819097;78;25827;-81
2022/11/25 02:48:46;;;;;;;96.02;36.83;;;;;;;1.97;92.94;100690.16;1808470;78;25841;-79
2022/11/25 02:51:16;;;;;;;103.67;38.10;;;;;;;1.99;92.97;100688.27;1767472;79;26587;-81
2022/11/25 02:53:43;;;;;;;110.63;39.08;;;;;;;1.98;92.82;100688.73;1766028;80;27694;-80
2022/11/25 02:56:12;;;;;;;98.17;36.38;;;;;;;1.95;92.81;100692.95;1824795;78;25766;-80
2022/11/25 02:58:39;;;;;;;106.80;39.20;;;;;;;1.94;92.83;100687.33;1796407;78;25787;-82
2022/11/25 03:01:05;;;;;;;113.37;40.85;;;;;;;1.91;92.83;100687.57;1809550;78;26895;-81
2022/11/25 03:03:32;;;;;;;100.82;37.80;;;;;;;1.91;92.92;100686.25;1810964;78;25275;-80
2022/11/25 03:05:58;;;;;;;103.90;38.60;;;;;;;1.89;92.90;100681.58;1811738;78;27020;-79
2022/11/25 03:08:24;;;;;;;104.20;38.60;;;;;;;1.89;93.06;100694.78;1793983;77;26507;-80
2022/11/25 03:10:52;;;;;;;111.65;39.03;;;;;;;1.91;93.02;100695.50;1799487;77;26131;-81
2022/11/25 03:13:18;;;;;;;95.67;39.08;;;;;;;1.91;92.89;100702.09;1809436;78;25904;-79
2022/11/25 03:15:45;;;;;;;118.37;40.95;;;;;;;1.90;92.79;100702.23;1817244;77;25858;-81
2022/11/25 03:18:11;;;;;;;105.17;40.00;;;;;;;1.86;92.78;100702.95;1801467;78;27464;-81
2022/11/25 03:20:38;;;;;;;106.40;38.00;;;;;;;1.87;92.92;100704.64;1815349;78;25810;-79
2022/11/25 03:23:05;;;;;;;107.17;39.53;;;;;;;1.89;93.04;100707.15;1811434;78;25918;-80
2022/11/25 03:25:35;;;;;;;100.45;39.38;;;;;;;1.91;93.06;100711.81;1801989;78;25817;-82
2022/11/25 03:28:03;;;;;;;96.02;36.77;;;;;;;1.90;92.94;100716.77;1814764;78;26401;-79
2022/11/25 03:30:30;;;;;;;99.03;37.83;;;;;;;1.90;92.81;100719.41;1811003;77;27411;-81
2022/11/25 03:32:58;;;;;;;99.65;35.95;;;;;;;1.89;92.81;100717.72;1807052;78;25806;-79
2022/11/25 03:35:25;;;;;;;96.20;34.70;;;;;;;1.89;92.93;100715.08;1817004;78;25660;-80
2022/11/25 03:37:53;;;;;;;105.32;37.45;;;;;;;1.87;92.79;100718.33;1807279;78;25783;-80
2022/11/25 03:40:19;;;;;;;87.17;34.75;;;;;;;1.86;92.82;100729.37;1806046;78;25841;-80
2022/11/25 03:42:46;;;;;;;97.37;36.50;;;;;;;1.82;92.60;100725.81;1797978;78;28626;-79
2022/11/25 03:45:14;;;;;;;92.53;36.70;;;;;;;1.78;92.68;100725.69;1765509;81;25740;-80
2022/11/25 03:47:43;;;;;;;94.15;36.85;;;;;;;1.79;92.89;100723.42;1766374;80;26369;-81
2022/11/25 03:50:11;;;;;;;84.30;34.70;;;;;;;1.80;92.90;100728.56;1742652;81;26306;-79
2022/11/25 03:52:39;;;;;;;93.85;37.67;;;;;;;1.82;92.95;100729.78;1765674;79;25288;-82
2022/11/25 03:55:07;;;;;;;83.10;33.13;;;;;;;1.83;92.82;100734.08;1771625;79;28327;-80
2022/11/25 03:57:35;;;;;;;86.08;36.83;;;;;;;1.82;92.81;100723.17;1805559;78;25283;-79
2022/11/25 04:00:03;;;;;;;92.82;35.73;;;;;;;1.83;92.91;100732.28;1803777;78;25598;-80
2022/11/25 04:02:31;;;;;;;94.83;34.70;;;;;;;1.87;92.89;100728.89;1792491;78;25850;-80
2022/11/25 04:04:58;;;;;;;88.95;32.20;;;;;;;1.86;92.76;100730.69;1817547;78;25768;-79
2022/11/25 04:07:24;;;;;;;97.70;37.63;;;;;;;1.81;92.44;100724.97;1805941;78;27506;-80
2022/11/25 04:09:53;;;;;;;94.72;38.95;;;;;;;1.81;92.67;100728.09;1804619;78;25896;-80
2022/11/25 04:15:08;;;;;;;91.75;33.90;;;;;;;1.83;92.68;100729.64;1811719;78;25804;-81
2022/11/25 04:17:34;;;;;;;86.95;32.40;;;;;;;1.87;92.79;100731.53;1804032;78;26267;-80
2022/11/25 04:20:01;;;;;;;86.67;32.58;;;;;;;1.88;92.77;100733.22;1796784;78;27558;-81
2022/11/25 04:22:28;;;;;;;94.75;34.88;;;;;;;1.88;92.70;100731.91;1798536;78;26490;-81
2022/11/25 04:24:55;;;;;;;80.15;32.78;;;;;;;1.88;92.63;100739.83;1810711;78;25787;-80
2022/11/25 04:27:23;;;;;;;91.08;34.58;;;;;;;1.90;92.72;100745.34;1807311;78;25786;-80
2022/11/25 04:29:50;;;;;;;85.20;34.05;;;;;;;1.94;92.69;100743.27;1816607;78;26490;-82
2022/11/25 04:32:18;;;;;;;90.20;34.03;;;;;;;1.90;92.62;100742.70;1804375;78;27500;-81
2022/11/25 04:34:45;;;;;;;86.12;33.67;;;;;;;1.89;92.36;100742.33;1784392;79;25811;-81
2022/11/25 04:37:12;;;;;;;91.47;34.18;;;;;;;1.88;92.36;100741.96;1781307;79;25285;-80
2022/11/25 04:39:39;;;;;;;92.00;34.27;;;;;;;1.90;92.50;100745.81;1801482;78;25899;-80
2022/11/25 04:44:53;;;;;;;93.47;33.63;;;;;;;1.87;92.27;100746.91;1800271;78;27437;-79
2022/11/25 04:47:19;;;;;;;96.45;35.33;;;;;;;1.85;92.30;100752.80;1801787;78;25942;-81
2022/11/25 04:49:46;;;;;;;97.30;37.78;;;;;;;1.86;92.51;100752.33;1772070;79;25805;-80
2022/11/25 04:52:13;;;;;;;112.37;37.30;;;;;;;1.85;92.46;100750.16;1757970;79;26560;-81
2022/11/25 04:54:40;;;;;;;104.63;37.80;;;;;;;1.83;92.42;100752.09;1752681;80;26330;-81
2022/11/25 04:57:13;;;;;;;104.00;38.05;;;;;;;1.84;92.44;100759.03;1749811;81;27459;-81
2022/11/25 04:59:42;;;;;;;113.55;37.73;;;;;;;1.83;92.49;100760.48;1743671;80;25893;-79
2022/11/25 05:02:21;;;;;;;107.60;38.90;;;;;;;1.85;92.67;100757.23;1740890;81;25967;-80
2022/11/25 05:04:56;;;;;;;104.17;38.42;;;;;;;1.85;92.65;100759.40;1763143;79;25864;-80
2022/11/25 05:07:26;;;;;;;103.75;37.58;;;;;;;1.85;92.52;100764.69;1759106;79;25775;-81
2022/11/25 05:09:54;;;;;;;114.85;39.63;;;;;;;1.86;92.50;100766.34;1762389;79;27445;-80
2022/11/25 05:12:28;;;;;;;104.00;36.75;;;;;;;1.86;92.46;100768.98;1765415;79;25811;-80
2022/11/25 05:14:56;;;;;;;106.47;41.58;;;;;;;1.87;92.53;100773.31;1748033;80;25938;-81
2022/11/25 05:17:27;;;;;;;113.10;38.73;;;;;;;1.89;92.57;100775.34;1759453;79;25839;-81
2022/11/25 05:19:54;;;;;;;113.35;38.67;;;;;;;1.90;92.63;100773.08;1766896;79;25316;-81
2022/11/25 05:22:28;;;;;;;108.12;39.18;;;;;;;1.91;92.64;100775.20;1740267;81;28311;-80
2022/11/25 05:24:57;;;;;;;133.25;42.60;;;;;;;1.91;92.62;100773.41;1756511;79;26729;-81
2022/11/25 05:27:25;;;;;;;123.40;43.17;;;;;;;1.90;92.60;100774.88;1764004;79;25791;-82
2022/11/25 05:29:52;;;;;;;121.10;40.00;;;;;;;1.91;92.61;100785.30;1757509;79;26463;-81
2022/11/25 05:32:19;;;;;;;114.85;40.20;;;;;;;1.91;92.57;100786.63;1772192;79;25322;-82
2022/11/25 05:34:45;;;;;;;115.05;41.55;;;;;;;1.91;92.57;100791.06;1742280;80;27459;-81
2022/11/25 05:37:13;;;;;;;124.67;42.00;;;;;;;1.92;92.57;100786.14;1727561;81;25964;-81
2022/11/25 05:39:42;;;;;;;109.37;38.38;;;;;;;1.92;92.56;100784.83;1734090;81;25916;-82
2022/11/25 05:42:20;;;;;;;125.05;42.13;;;;;;;1.93;92.61;100791.30;1747866;80;25979;-81
2022/11/25 05:44:47;;;;;;;118.93;40.50;;;;;;;1.92;92.45;100788.78;1749279;80;25787;-82
2022/11/25 05:47:13;;;;;;;121.02;41.00;;;;;;;1.93;92.58;100793.09;1744557;81;27477;-82
2022/11/25 05:49:42;;;;;;;128.70;43.45;;;;;;;1.94;92.61;100786.37;1728834;81;25888;-81
2022/11/25 05:52:08;;;;;;;124.87;39.90;;;;;;;1.95;92.57;100792.48;1764816;79;25788;-82
2022/11/25 05:54:36;;;;;;;115.30;43.10;;;;;;;1.96;92.61;100790.20;1761647;80;26526;-81
2022/11/25 05:57:03;;;;;;;135.32;44.03;;;;;;;1.98;92.60;100789.59;1743835;81;26604;-82
2022/11/25 05:59:31;;;;;;;127.95;42.00;;;;;;;1.97;92.54;100800.64;1744830;81;27136;-81
2022/11/25 06:01:59;;;;;;;123.80;40.40;;;;;;;1.98;92.54;100797.52;1724995;81;25984;-81
2022/11/25 06:04:27;;;;;;;116.55;40.75;;;;;;;2.00;92.61;100800.39;1764416;79;26397;-80
2022/11/25 06:06:53;;;;;;;126.47;44.08;;;;;;;1.99;92.42;100803.98;1737098;81;25846;-79
2022/11/25 06:09:20;;;;;;;132.10;43.45;;;;;;;1.97;92.40;100807.23;1757322;79;26562;-81
2022/11/25 06:11:46;;;;;;;129.60;44.03;;;;;;;1.97;92.51;100801.95;1735614;81;27529;-81
2022/11/25 06:14:16;;;;;;;131.55;42.85;;;;;;;1.97;92.62;100801.11;1733899;81;26234;-83
2022/11/25 06:16:43;;;;;;;136.53;44.43;;;;;;;1.99;92.67;100804.49;1751018;80;25835;-81
2022/11/25 06:19:17;;;;;;;139.52;42.73;;;;;;;1.99;92.60;100804.49;1735432;81;26523;-80
2022/11/25 06:21:43;;;;;;;129.25;45.67;;;;;;;1.99;92.70;100804.49;1765527;79;25836;-82
2022/11/25 06:24:10;;;;;;;119.85;39.95;;;;;;;2.00;92.72;100798.23;1762857;79;27429;-80
2022/11/25 06:26:36;;;;;;;138.18;44.45;;;;;;;2.01;92.77;100803.37;1736634;81;26582;-80
2022/11/25 06:29:03;;;;;;;138.75;45.55;;;;;;;2.02;92.79;100803.75;1741876;81;25772;-81
2022/11/25 06:31:29;;;;;;;137.75;45.55;;;;;;;2.04;92.74;100803.61;1752181;80;25312;-81
2022/11/25 06:34:12;;;;;;;132.40;41.33;;;;;;;2.04;92.76;100807.58;1733440;81;25928;-81
2022/11/25 06:36:39;;;;;;;122.35;43.78;;;;;;;2.05;92.86;100804.80;1747019;80;28428;-80
2022/11/25 06:39:06;;;;;;;136.92;45.85;;;;;;;2.07;92.87;100810.82;1765557;80;26456;-81
2022/11/25 06:41:32;;;;;;;140.47;45.90;;;;;;;2.09;92.88;100812.00;1765445;81;25949;-81
2022/11/25 06:43:58;;;;;;;138.72;46.20;;;;;;;2.09;92.89;100810.68;1745441;81;25765;-80
2022/11/25 06:46:25;;;;;;;139.75;45.15;;;;;;;2.10;92.83;100813.66;1735130;81;25999;-83
2022/11/25 06:48:53;;;;;;;136.85;44.30;;;;;;;2.10;92.79;100813.19;1765136;80;27456;-80
2022/11/25 06:51:19;;;;;;;137.55;45.83;;;;;;;2.09;92.71;100812.00;1748678;80;25778;-82
2022/11/25 06:53:45;;;;;;;129.55;42.20;;;;;;;2.08;92.76;100821.73;1735119;81;25796;-82
2022/11/25 06:56:22;;;;;;;142.37;46.68;;;;;;;2.10;92.78;100821.59;1750625;80;25797;-82
2022/11/25 06:58:50;;;;;;;130.55;43.13;;;;;;;2.10;92.83;100826.40;1766070;79;25995;-81
2022/11/25 07:01:22;;;;;;;122.90;44.23;;;;;;;2.10;92.90;100819.80;1732168;81;28558;-81
2022/11/25 07:03:53;;;;;;;121.37;41.35;;;;;;;2.13;92.98;100825.31;1742550;80;25827;-83
2022/11/25 07:06:20;;;;;;;129.90;44.30;;;;;;;2.14;92.97;100826.50;1763851;79;26547;-80
2022/11/25 07:08:47;;;;;;;125.82;41.70;;;;;;;2.16;92.89;100825.07;1752073;80;26553;-82
2022/11/25 07:11:30;;;;;;;129.05;40.70;;;;;;;2.17;92.92;100826.25;1764304;81;26005;-81
2022/11/25 07:14:00;;;;;;;132.90;44.40;;;;;;;2.17;92.96;100827.58;1767353;79;27599;-81
2022/11/25 07:16:28;;;;;;;127.05;43.55;;;;;;;2.18;92.90;100838.48;1737759;81;25807;-81
2022/11/25 07:18:54;;;;;;;126.05;41.48;;;;;;;2.21;92.92;100838.24;1743972;81;25856;-81
2022/11/25 07:21:24;;;;;;;115.32;41.50;;;;;;;2.21;92.90;100835.60;1767736;79;25776;-81
2022/11/25 07:23:51;;;;;;;129.42;44.30;;;;;;;2.23;92.93;100832.82;1742318;81;25808;-82
2022/11/25 07:26:25;;;;;;;120.25;42.27;;;;;;;2.24;92.93;100832.72;1757012;80;27552;-81
2022/11/25 07:28:53;;;;;;;118.93;42.15;;;;;;;2.24;92.82;100832.72;1743120;81;26486;-80
2022/11/25 07:31:26;;;;;;;120.37;41.53;;;;;;;2.26;92.80;100834.75;1746165;80;25911;-82
2022/11/25 07:34:01;;;;;;;117.90;42.20;;;;;;;2.27;92.84;100836.41;1761903;79;26581;-81
2022/11/25 07:36:29;;;;;;;124.00;45.23;;;;;;;2.28;92.80;100839.89;1756947;81;25906;-80
2022/11/25 07:39:02;;;;;;;119.62;43.52;;;;;;;2.28;92.76;100839.42;1746167;81;27464;-81
2022/11/25 07:41:30;;;;;;;127.55;43.25;;;;;;;2.29;92.71;100850.33;1745265;80;25704;-83
2022/11/25 07:44:00;;;;;;;130.57;43.05;;;;;;;2.30;92.76;100843.24;1739217;81;25915;-81
2022/11/25 07:46:35;;;;;;;121.07;44.85;;;;;;;2.29;92.66;100846.84;1753592;80;26068;-82
2022/11/25 07:49:05;;;;;;;128.18;45.28;;;;;;;2.29;92.66;100853.45;1757710;79;25931;-82
2022/11/25 07:51:36;;;;;;;123.58;47.10;;;;;;;2.30;92.79;100852.02;1769256;79;27455;-81
2022/11/25 07:54:05;;;;;;;120.60;43.35;;;;;;;2.32;92.82;100851.41;1763166;79;26147;-81
2022/11/25 07:56:35;;;;;;;124.40;43.45;;;;;;;2.34;92.78;100852.12;1763701;79;25592;-80
2022/11/25 07:59:03;;;;;;;120.30;43.40;;;;;;;2.35;92.78;100860.38;1772622;79;26718;-82
2022/11/25 08:01:29;;;;;;;120.97;42.60;;;;;;;2.37;92.71;100860.28;1750095;81;25866;-81
2022/11/25 08:03:56;;;;;;;118.65;41.95;;;;;;;2.35;92.56;100864.86;1750270;80;27445;-81
2022/11/25 08:06:26;;;;;;;109.10;41.85;;;;;;;2.35;92.68;100860.89;1796661;78;25875;-81
2022/11/25 08:08:55;;;;;;;109.80;42.95;;;;;;;2.36;92.65;100862.55;1802098;77;25770;-81
2022/11/25 08:11:31;;;;;;;98.95;38.83;;;;;;;2.37;92.64;100870.00;1787453;78;26674;-80
2022/11/25 08:13:58;;;;;;;110.75;40.88;;;;;;;2.36;92.51;100866.52;1793237;78;26598;-80
2022/11/25 08:16:29;;;;;;;106.78;39.15;;;;;;;2.36;92.68;100869.16;1798862;78;28002;-83
2022/11/25 08:18:58;;;;;;;104.35;39.27;;;;;;;2.38;92.67;100865.91;1801849;78;25975;-80
2022/11/25 08:21:24;;;;;;;99.72;40.38;;;;;;;2.41;92.76;100856.88;1798266;78;25309;-84
2022/11/25 08:23:52;;;;;;;94.62;38.85;;;;;;;2.43;92.75;100865.52;1770164;79;25826;-83
2022/11/25 08:26:24;;;;;;;88.05;37.75;;;;;;;2.46;92.73;100860.80;1797353;78;25402;-80
2022/11/25 08:28:53;;;;;;;80.55;35.45;;;;;;;2.48;92.68;100858.05;1801173;78;27487;-86
2022/11/25 08:31:23;;;;;;;91.45;36.05;;;;;;;2.50;92.68;100862.73;1790303;78;25846;-87
2022/11/25 08:33:51;;;;;;;85.57;35.75;;;;;;;2.50;92.62;100865.38;1785698;78;25880;-87
2022/11/25 08:36:18;;;;;;;80.00;34.45;;;;;;;2.51;92.59;100869.20;1796371;78;25284;-88
2022/11/25 08:38:47;;;;;;;70.65;33.30;;;;;;;2.51;92.47;100872.32;1802936;78;25901;-85
2022/11/25 08:41:18;;;;;;;86.40;35.10;;;;;;;2.47;92.27;100878.36;1800684;78;27501;-88
2022/11/25 08:43:45;;;;;;;81.25;35.13;;;;;;;2.45;92.38;100873.69;1807704;78;26382;-84
2022/11/25 08:46:16;;;;;;;79.65;35.43;;;;;;;2.47;92.51;100880.16;1767679;79;25322;-87
2022/11/25 08:48:43;;;;;;;82.40;36.70;;;;;;;2.47;92.52;100879.69;1778019;79;25777;-86
2022/11/25 08:51:14;;;;;;;81.72;34.95;;;;;;;2.49;92.52;100884.36;1765472;81;25744;-87
2022/11/25 08:53:42;;;;;;;81.63;36.33;;;;;;;2.50;92.60;100887.38;1764825;81;27472;-84
2022/11/25 08:56:09;;;;;;;79.45;33.58;;;;;;;2.52;92.55;100885.44;1759169;79;25934;-86
2022/11/25 08:58:36;;;;;;;74.10;32.25;;;;;;;2.54;92.53;100893.23;1761916;80;25927;-84
2022/11/25 09:01:04;;;;;;;83.10;35.48;;;;;;;2.55;92.52;100894.89;1760530;79;26510;-83
2022/11/25 09:03:33;;;;;;;76.20;35.48;;;;;;;2.57;92.79;100888.98;1749025;79;25969;-83
2022/11/25 09:06:00;;;;;;;81.65;36.23;;;;;;;2.60;92.71;100894.03;1742554;81;27444;-85
2022/11/25 09:08:27;;;;;;;82.35;34.45;;;;;;;2.62;92.57;100888.13;1749112;79;25624;-83
2022/11/25 09:10:53;;;;;;;76.55;33.67;;;;;;;2.63;92.55;100893.28;1737932;81;26482;-82
2022/11/25 09:13:20;;;;;;;81.12;34.63;;;;;;;2.65;92.45;100894.50;1757414;79;26531;-83
2022/11/25 09:15:46;;;;;;;82.17;34.53;;;;;;;2.64;92.36;100895.45;1752124;81;25901;-82
2022/11/25 09:18:14;;;;;;;93.47;39.30;;;;;;;2.64;92.46;100892.80;1742407;81;27486;-87
2022/11/25 09:20:40;;;;;;;85.42;36.48;;;;;;;2.67;92.39;100895.20;1749988;81;25823;-88
2022/11/25 09:23:08;;;;;;;94.80;36.83;;;;;;;2.66;92.39;100894.84;1750430;80;25798;-83
2022/11/25 09:25:35;;;;;;;93.78;37.30;;;;;;;2.67;92.44;100899.17;1755605;81;26584;-83
2022/11/25 09:28:02;;;;;;;93.50;39.13;;;;;;;2.68;92.43;100895.06;1759501;79;25568;-82
2022/11/25 09:30:30;;;;;;;90.55;36.45;;;;;;;2.70;92.38;100902.86;1769005;79;27518;-84
2022/11/25 09:32:56;;;;;;;91.02;36.58;;;;;;;2.70;92.29;100897.58;1759360;79;26337;-82
2022/11/25 09:35:24;;;;;;;92.78;38.85;;;;;;;2.70;92.17;100906.83;1771935;79;25780;-82
2022/11/25 09:37:51;;;;;;;86.90;36.77;;;;;;;2.70;92.16;100906.83;1764620;79;25808;-82
2022/11/25 09:40:46;;;;;;;89.72;38.13;;;;;;;2.70;92.26;100906.83;1754231;81;26596;-85
2022/11/25 09:47:10;;;;;;;92.37;39.42;;;;;;;2.70;92.43;100906.83;1768355;79;25848;-83
2022/11/25 09:50:14;;;;;;;89.70;39.50;;;;;;;2.70;92.34;100907.67;1756571;79;26440;-84
2022/11/25 09:52:49;;;;;;;86.63;36.50;;;;;;;2.72;92.37;100905.73;1764230;79;25808;-82
2022/11/25 09:55:24;;;;;;;98.65;38.20;;;;;;;2.74;92.42;100906.92;1763972;79;26561;-81
2022/11/25 09:58:16;;;;;;;96.87;36.93;;;;;;;2.75;92.38;100905.50;1762850;79;28255;-80
2022/11/25 10:00:46;;;;;;;100.75;38.92;;;;;;;2.76;92.43;100904.51;1745412;81;26121;-81
2022/11/25 10:03:28;;;;;;;92.50;36.83;;;;;;;2.81;93.07;100910.73;1749820;81;25812;-81
2022/11/25 10:06:06;;;;;;;91.17;35.52;;;;;;;2.82;92.87;100916.39;1753216;81;25860;-86
2022/11/25 10:08:47;;;;;;;93.60;38.80;;;;;;;2.84;92.76;100915.30;1758463;80;25322;-86
2022/11/25 10:11:23;;;;;;;93.25;38.05;;;;;;;2.86;92.67;100912.05;1747001;80;28404;-83
2022/11/25 10:14:16;;;;;;;94.17;37.90;;;;;;;2.88;92.54;100915.88;1752187;80;25866;-88
2022/11/25 10:16:50;;;;;;;91.05;36.45;;;;;;;2.90;92.41;100917.42;1765051;79;25800;-88
2022/11/25 10:19:25;;;;;;;99.22;41.05;;;;;;;2.89;92.26;100912.24;1728671;81;26389;-86
2022/11/25 10:21:51;;;;;;;103.35;40.88;;;;;;;2.90;92.33;100917.42;1744800;80;25941;-84
2022/11/25 10:24:20;;;;;;;94.32;40.63;;;;;;;2.92;92.40;100918.13;1744811;81;27586;-86
2022/11/25 10:26:58;;;;;;;96.85;42.83;;;;;;;2.95;92.45;100919.17;1750567;80;25785;-84
2022/11/25 10:29:29;;;;;;;98.12;41.83;;;;;;;2.97;92.43;100914.59;1757685;79;25334;-82
2022/11/25 10:32:18;;;;;;;110.15;43.48;;;;;;;2.99;92.51;100917.95;1764085;79;26113;-83
2022/11/25 10:34:52;;;;;;;104.43;43.48;;;;;;;3.03;92.56;100916.74;1746817;79;25652;-82
2022/11/25 10:37:35;;;;;;;104.97;43.87;;;;;;;3.07;92.84;100927.41;1762937;79;29191;-83
2022/11/25 10:40:02;;;;;;;105.10;41.83;;;;;;;3.10;92.53;100923.67;1757468;79;26434;-87
2022/11/25 10:42:31;;;;;;;99.25;41.18;;;;;;;3.10;92.44;100926.32;1769069;79;26235;-90
2022/11/25 10:44:59;;;;;;;108.57;43.23;;;;;;;3.10;92.41;100928.45;1758089;79;25344;-86
2022/11/25 10:47:58;;;;;;;99.28;41.20;;;;;;;3.11;92.44;100930.16;1775064;79;25764;-86
2022/11/25 10:50:48;;;;;;;96.95;40.40;;;;;;;3.14;92.44;100927.73;1704342;81;27495;-83
2022/11/25 10:53:36;;;;;;;;;;;;;;;;;;;;;
2022/11/25 10:56:05;;;;;;;107.25;41.88;;;;;;;3.13;92.37;100930.02;1729091;81;25316;-90
2022/11/25 10:58:36;;;;;;;85.00;37.03;;;;;;;3.10;92.32;100932.43;1735340;79;25786;-87
2022/11/25 11:01:22;;;;;;;91.02;39.13;;;;;;;3.13;92.54;100935.30;1739172;80;25341;-86
2022/11/25 11:04:02;;;;;;;89.32;36.90;;;;;;;3.10;92.30;100924.48;1733872;81;27487;-86
2022/11/25 11:06:39;;;;;;;86.00;36.50;;;;;;;3.11;92.45;100924.02;1762768;79;25288;-86
2022/11/25 11:09:28;;;;;;;75.30;34.25;;;;;;;3.10;92.44;100925.81;1763042;79;25655;-83
2022/11/25 11:11:54;;;;;;;79.92;35.88;;;;;;;3.09;92.40;100921.50;1738906;81;25921;-87
2022/11/25 11:14:21;;;;;;;83.52;34.08;;;;;;;3.11;92.50;100925.33;1767037;79;25580;-83
2022/11/25 11:16:54;;;;;;;84.45;36.50;;;;;;;3.10;92.54;100923.16;1765606;79;27870;-88
2022/11/25 11:19:25;;;;;;;82.27;36.25;;;;;;;3.12;92.63;100924.38;1774318;79;25822;-86
2022/11/25 11:21:52;;;;;;;;;;;;;;;3.13;92.54;100926.04;1770989;79;25379;-85
2022/11/25 11:24:33;;;;;;;76.33;33.60;;;;;;;3.11;92.60;100919.56;1777854;79;25773;-84
2022/11/25 11:27:24;;;;;;;79.22;35.58;;;;;;;3.11;92.65;100922.69;1755767;79;26443;-81
2022/11/25 11:30:08;;;;;;;;;;;;;;;3.12;92.62;100927.03;1762142;79;27610;-81
2022/11/25 11:32:36;;;;;;;81.92;35.55;;;;;;;3.12;92.63;100927.03;1748012;80;25233;-82
2022/11/25 11:35:11;;;;;;;83.85;37.13;;;;;;;3.10;92.71;100925.00;1742013;81;25265;-85
2022/11/25 11:37:49;;;;;;;80.50;37.23;;;;;;;3.12;92.72;100929.67;1760855;79;25758;-83
2022/11/25 11:40:39;;;;;;;81.37;33.98;;;;;;;3.11;92.53;100930.62;1781551;79;26441;-82
2022/11/25 11:43:30;;;;;;;84.45;36.98;;;;;;;3.11;92.54;100934.59;1761630;79;27451;-86